sensor_id;sensor_type;location;lat;lon;timestamp;temperature;humidity
66586;SHT30;53444;45.822;16.092;2024-03-02T00:00:14;8.72;98.93
66586;SHT30;53444;45.822;16.092;2024-03-02T00:02:43;8.76;98.79
66586;SHT30;53444;45.822;16.092;2024-03-02T00:05:11;8.51;99.37
66586;SHT30;53444;45.822;16.092;2024-03-02T00:07:39;8.45;99.63
66586;SHT30;53444;45.822;16.092;2024-03-02T00:10:09;8.40;99.80
66586;SHT30;53444;45.822;16.092;2024-03-02T00:12:37;8.56;99.63
66586;SHT30;53444;45.822;16.092;2024-03-02T00:15:06;8.65;99.19
66586;SHT30;53444;45.822;16.092;2024-03-02T00:17:47;8.65;98.93
66586;SHT30;53444;45.822;16.092;2024-03-02T00:20:15;8.71;98.69
66586;SHT30;53444;45.822;16.092;2024-03-02T00:22:44;8.53;99.00
66586;SHT30;53444;45.822;16.092;2024-03-02T00:25:11;8.44;99.15
66586;SHT30;53444;45.822;16.092;2024-03-02T00:27:37;8.42;99.45
66586;SHT30;53444;45.822;16.092;2024-03-02T00:30:06;8.45;99.10
66586;SHT30;53444;45.822;16.092;2024-03-02T00:32:54;8.31;99.50
66586;SHT30;53444;45.822;16.092;2024-03-02T00:35:21;8.25;99.45
66586;SHT30;53444;45.822;16.092;2024-03-02T00:37:49;8.12;99.73
66586;SHT30;53444;45.822;16.092;2024-03-02T00:40:17;8.07;99.99
66586;SHT30;53444;45.822;16.092;2024-03-02T00:42:44;8.11;99.61
66586;SHT30;53444;45.822;16.092;2024-03-02T00:45:12;8.20;99.36
66586;SHT30;53444;45.822;16.092;2024-03-02T00:47:39;8.22;99.10
66586;SHT30;53444;45.822;16.092;2024-03-02T00:50:08;8.28;98.98
66586;SHT30;53444;45.822;16.092;2024-03-02T00:52:35;8.22;98.57
66586;SHT30;53444;45.822;16.092;2024-03-02T00:55:01;8.04;99.16
66586;SHT30;53444;45.822;16.092;2024-03-02T00:57:30;8.00;99.27
66586;SHT30;53444;45.822;16.092;2024-03-02T00:59:57;7.97;99.36
66586;SHT30;53444;45.822;16.092;2024-03-02T01:02:24;7.86;99.93
66586;SHT30;53444;45.822;16.092;2024-03-02T01:04:50;7.97;99.71
66586;SHT30;53444;45.822;16.092;2024-03-02T01:07:18;8.02;99.25
66586;SHT30;53444;45.822;16.092;2024-03-02T01:09:45;7.95;99.46
66586;SHT30;53444;45.822;16.092;2024-03-02T01:12:11;7.95;99.35
66586;SHT30;53444;45.822;16.092;2024-03-02T01:14:38;7.86;99.49
66586;SHT30;53444;45.822;16.092;2024-03-02T01:17:05;7.83;99.38
66586;SHT30;53444;45.822;16.092;2024-03-02T01:19:31;7.81;99.59
66586;SHT30;53444;45.822;16.092;2024-03-02T01:21:58;7.89;99.30
66586;SHT30;53444;45.822;16.092;2024-03-02T01:24:26;7.90;98.82
66586;SHT30;53444;45.822;16.092;2024-03-02T01:26:52;7.86;98.88
66586;SHT30;53444;45.822;16.092;2024-03-02T01:29:19;7.77;98.96
66586;SHT30;53444;45.822;16.092;2024-03-02T01:31:45;7.63;99.30
66586;SHT30;53444;45.822;16.092;2024-03-02T01:34:13;7.66;99.34
66586;SHT30;53444;45.822;16.092;2024-03-02T01:36:39;7.70;99.25
66586;SHT30;53444;45.822;16.092;2024-03-02T01:39:06;7.74;99.10
66586;SHT30;53444;45.822;16.092;2024-03-02T01:41:35;7.80;98.84
66586;SHT30;53444;45.822;16.092;2024-03-02T01:44:02;7.77;98.56
66586;SHT30;53444;45.822;16.092;2024-03-02T01:46:29;7.74;98.49
66586;SHT30;53444;45.822;16.092;2024-03-02T01:48:55;7.74;98.36
66586;SHT30;53444;45.822;16.092;2024-03-02T01:51:22;7.69;98.38
66586;SHT30;53444;45.822;16.092;2024-03-02T01:53:49;7.63;98.49
66586;SHT30;53444;45.822;16.092;2024-03-02T01:56:15;7.50;98.45
66586;SHT30;53444;45.822;16.092;2024-03-02T01:58:43;7.52;98.42
66586;SHT30;53444;45.822;16.092;2024-03-02T02:01:10;7.55;98.28
66586;SHT30;53444;45.822;16.092;2024-03-02T02:03:36;7.56;98.25
66586;SHT30;53444;45.822;16.092;2024-03-02T02:06:04;7.50;98.19
66586;SHT30;53444;45.822;16.092;2024-03-02T02:08:30;7.50;98.09
66586;SHT30;53444;45.822;16.092;2024-03-02T02:10:57;7.48;97.95
66586;SHT30;53444;45.822;16.092;2024-03-02T02:13:24;7.43;98.07
66586;SHT30;53444;45.822;16.092;2024-03-02T02:15:52;7.45;98.00
66586;SHT30;53444;45.822;16.092;2024-03-02T02:18:18;7.42;98.20
66586;SHT30;53444;45.822;16.092;2024-03-02T02:20:45;7.33;98.16
66586;SHT30;53444;45.822;16.092;2024-03-02T02:23:13;7.25;98.54
66586;SHT30;53444;45.822;16.092;2024-03-02T02:25:40;7.19;98.90
66586;SHT30;53444;45.822;16.092;2024-03-02T02:28:06;7.11;99.16
66586;SHT30;53444;45.822;16.092;2024-03-02T02:30:33;7.19;98.78
66586;SHT30;53444;45.822;16.092;2024-03-02T02:32:59;7.04;99.09
66586;SHT30;53444;45.822;16.092;2024-03-02T02:35:26;6.89;99.38
66586;SHT30;53444;45.822;16.092;2024-03-02T02:37:54;6.85;99.93
66586;SHT30;53444;45.822;16.092;2024-03-02T02:40:22;6.80;99.84
66586;SHT30;53444;45.822;16.092;2024-03-02T02:42:49;6.78;99.99
66586;SHT30;53444;45.822;16.092;2024-03-02T02:45:17;6.84;99.99
66586;SHT30;53444;45.822;16.092;2024-03-02T02:47:44;6.94;99.63
66586;SHT30;53444;45.822;16.092;2024-03-02T02:50:12;6.97;99.01
66586;SHT30;53444;45.822;16.092;2024-03-02T02:52:40;6.85;99.49
66586;SHT30;53444;45.822;16.092;2024-03-02T02:55:08;6.94;99.22
66586;SHT30;53444;45.822;16.092;2024-03-02T02:57:39;6.94;98.75
66586;SHT30;53444;45.822;16.092;2024-03-02T03:00:09;6.87;98.63
66586;SHT30;53444;45.822;16.092;2024-03-02T03:02:40;6.66;98.80
66586;SHT30;53444;45.822;16.092;2024-03-02T03:05:08;6.27;99.11
66586;SHT30;53444;45.822;16.092;2024-03-02T03:07:35;5.78;99.99
66586;SHT30;53444;45.822;16.092;2024-03-02T03:10:03;5.85;99.99
66586;SHT30;53444;45.822;16.092;2024-03-02T03:12:29;6.10;99.99
66586;SHT30;53444;45.822;16.092;2024-03-02T03:14:58;6.26;99.99
66586;SHT30;53444;45.822;16.092;2024-03-02T03:17:25;6.06;99.99
66586;SHT30;53444;45.822;16.092;2024-03-02T03:19:52;5.98;99.99
66586;SHT30;53444;45.822;16.092;2024-03-02T03:22:22;6.03;99.99
66586;SHT30;53444;45.822;16.092;2024-03-02T03:24:51;6.09;99.99
66586;SHT30;53444;45.822;16.092;2024-03-02T03:27:17;6.23;99.99
66586;SHT30;53444;45.822;16.092;2024-03-02T03:29:45;6.29;99.99
66586;SHT30;53444;45.822;16.092;2024-03-02T03:32:12;6.33;99.67
66586;SHT30;53444;45.822;16.092;2024-03-02T03:34:39;6.37;99.36
66586;SHT30;53444;45.822;16.092;2024-03-02T03:37:06;6.40;98.97
66586;SHT30;53444;45.822;16.092;2024-03-02T03:39:34;6.32;99.01
66586;SHT30;53444;45.822;16.092;2024-03-02T03:42:01;6.25;99.34
66586;SHT30;53444;45.822;16.092;2024-03-02T03:44:27;6.32;98.88
66586;SHT30;53444;45.822;16.092;2024-03-02T03:46:54;6.34;98.72
66586;SHT30;53444;45.822;16.092;2024-03-02T03:49:22;6.40;98.51
66586;SHT30;53444;45.822;16.092;2024-03-02T03:51:48;6.33;98.51
66586;SHT30;53444;45.822;16.092;2024-03-02T03:54:15;6.37;98.31
66586;SHT30;53444;45.822;16.092;2024-03-02T03:56:41;6.32;98.28
66586;SHT30;53444;45.822;16.092;2024-03-02T03:59:08;6.22;98.19
66586;SHT30;53444;45.822;16.092;2024-03-02T04:01:35;6.16;98.48
66586;SHT30;53444;45.822;16.092;2024-03-02T04:04:01;6.15;98.77
66586;SHT30;53444;45.822;16.092;2024-03-02T04:06:30;6.01;99.27
66586;SHT30;53444;45.822;16.092;2024-03-02T04:08:57;6.10;99.09
66586;SHT30;53444;45.822;16.092;2024-03-02T04:11:23;6.09;98.84
66586;SHT30;53444;45.822;16.092;2024-03-02T04:13:50;6.09;98.56
66586;SHT30;53444;45.822;16.092;2024-03-02T04:16:17;6.13;98.42
66586;SHT30;53444;45.822;16.092;2024-03-02T04:18:43;6.07;98.43
66586;SHT30;53444;45.822;16.092;2024-03-02T04:21:10;6.12;98.37
66586;SHT30;53444;45.822;16.092;2024-03-02T04:23:38;6.09;97.29
66586;SHT30;53444;45.822;16.092;2024-03-02T04:26:04;5.72;97.06
66586;SHT30;53444;45.822;16.092;2024-03-02T04:28:31;4.96;98.53
66586;SHT30;53444;45.822;16.092;2024-03-02T04:30:58;4.46;99.60
66586;SHT30;53444;45.822;16.092;2024-03-02T04:33:24;4.76;99.65
66586;SHT30;53444;45.822;16.092;2024-03-02T04:35:51;4.72;99.77
66586;SHT30;53444;45.822;16.092;2024-03-02T04:38:17;4.83;99.50
66586;SHT30;53444;45.822;16.092;2024-03-02T04:40:45;4.93;99.87
66586;SHT30;53444;45.822;16.092;2024-03-02T04:43:12;4.96;99.53
66586;SHT30;53444;45.822;16.092;2024-03-02T04:45:41;4.94;99.78
66586;SHT30;53444;45.822;16.092;2024-03-02T04:48:09;4.94;99.90
66586;SHT30;53444;45.822;16.092;2024-03-02T04:50:35;5.00;99.99
66586;SHT30;53444;45.822;16.092;2024-03-02T04:53:02;5.06;99.99
66586;SHT30;53444;45.822;16.092;2024-03-02T04:55:28;5.00;99.99
66586;SHT30;53444;45.822;16.092;2024-03-02T04:58:14;5.03;99.99
66586;SHT30;53444;45.822;16.092;2024-03-02T05:00:41;4.90;99.99
66586;SHT30;53444;45.822;16.092;2024-03-02T05:03:08;5.06;99.99
66586;SHT30;53444;45.822;16.092;2024-03-02T05:05:34;4.99;99.99
66586;SHT30;53444;45.822;16.092;2024-03-02T05:08:02;5.19;99.99
66586;SHT30;53444;45.822;16.092;2024-03-02T05:10:29;5.33;99.99
66586;SHT30;53444;45.822;16.092;2024-03-02T05:12:55;5.43;99.99
66586;SHT30;53444;45.822;16.092;2024-03-02T05:15:26;5.35;99.99
66586;SHT30;53444;45.822;16.092;2024-03-02T05:17:52;5.31;99.99
66586;SHT30;53444;45.822;16.092;2024-03-02T05:20:20;5.31;99.99
66586;SHT30;53444;45.822;16.092;2024-03-02T05:22:46;5.38;99.99
66586;SHT30;53444;45.822;16.092;2024-03-02T05:25:13;5.28;99.85
66586;SHT30;53444;45.822;16.092;2024-03-02T05:27:40;5.31;99.78
66586;SHT30;53444;45.822;16.092;2024-03-02T05:30:08;5.30;99.67
66586;SHT30;53444;45.822;16.092;2024-03-02T05:32:36;5.35;99.90
66586;SHT30;53444;45.822;16.092;2024-03-02T05:35:03;5.43;99.99
66586;SHT30;53444;45.822;16.092;2024-03-02T05:37:30;5.45;99.85
66586;SHT30;53444;45.822;16.092;2024-03-02T05:39:57;5.37;99.99
66586;SHT30;53444;45.822;16.092;2024-03-02T05:42:24;5.38;99.99
66586;SHT30;53444;45.822;16.092;2024-03-02T05:44:52;5.31;99.99
66586;SHT30;53444;45.822;16.092;2024-03-02T05:47:18;5.33;99.99
66586;SHT30;53444;45.822;16.092;2024-03-02T05:49:46;5.38;99.99
66586;SHT30;53444;45.822;16.092;2024-03-02T05:52:13;5.45;99.99
66586;SHT30;53444;45.822;16.092;2024-03-02T05:54:40;5.51;99.99
66586;SHT30;53444;45.822;16.092;2024-03-02T05:57:06;5.54;99.99
66586;SHT30;53444;45.822;16.092;2024-03-02T05:59:54;5.55;99.99
66586;SHT30;53444;45.822;16.092;2024-03-02T06:02:21;5.54;99.96
66586;SHT30;53444;45.822;16.092;2024-03-02T06:04:48;5.62;99.69
66586;SHT30;53444;45.822;16.092;2024-03-02T06:07:15;5.56;99.84
66586;SHT30;53444;45.822;16.092;2024-03-02T06:09:42;5.61;99.76
66586;SHT30;53444;45.822;16.092;2024-03-02T06:12:10;5.44;99.80
66586;SHT30;53444;45.822;16.092;2024-03-02T06:14:36;5.51;99.99
66586;SHT30;53444;45.822;16.092;2024-03-02T06:17:03;5.54;99.99
66586;SHT30;53444;45.822;16.092;2024-03-02T06:19:30;5.65;99.78
66586;SHT30;53444;45.822;16.092;2024-03-02T06:21:58;5.68;99.62
66586;SHT30;53444;45.822;16.092;2024-03-02T06:24:25;5.65;99.61
66586;SHT30;53444;45.822;16.092;2024-03-02T06:26:52;5.79;99.27
66586;SHT30;53444;45.822;16.092;2024-03-02T06:29:18;5.86;98.84
66586;SHT30;53444;45.822;16.092;2024-03-02T06:31:45;5.98;98.55
66586;SHT30;53444;45.822;16.092;2024-03-02T06:34:11;5.99;98.55
66586;SHT30;53444;45.822;16.092;2024-03-02T06:36:38;5.96;98.52
66586;SHT30;53444;45.822;16.092;2024-03-02T06:39:07;5.89;98.54
66586;SHT30;53444;45.822;16.092;2024-03-02T06:41:35;5.88;98.40
66586;SHT30;53444;45.822;16.092;2024-03-02T06:44:04;5.74;98.69
66586;SHT30;53444;45.822;16.092;2024-03-02T06:46:31;5.81;98.73
66586;SHT30;53444;45.822;16.092;2024-03-02T06:48:58;5.31;99.99
66586;SHT30;53444;45.822;16.092;2024-03-02T06:51:25;5.37;99.99
66586;SHT30;53444;45.822;16.092;2024-03-02T06:53:51;5.43;99.99
66586;SHT30;53444;45.822;16.092;2024-03-02T06:56:19;5.52;99.99
66586;SHT30;53444;45.822;16.092;2024-03-02T06:58:46;5.72;99.99
66586;SHT30;53444;45.822;16.092;2024-03-02T07:01:12;5.82;99.99
66586;SHT30;53444;45.822;16.092;2024-03-02T07:03:39;5.89;99.99
66586;SHT30;53444;45.822;16.092;2024-03-02T07:06:06;6.05;99.99
66586;SHT30;53444;45.822;16.092;2024-03-02T07:08:33;6.12;99.91
66586;SHT30;53444;45.822;16.092;2024-03-02T07:11:00;6.22;99.87
66586;SHT30;53444;45.822;16.092;2024-03-02T07:13:28;6.01;99.99
66586;SHT30;53444;45.822;16.092;2024-03-02T07:15:54;6.22;99.99
66586;SHT30;53444;45.822;16.092;2024-03-02T07:18:47;6.17;99.99
66586;SHT30;53444;45.822;16.092;2024-03-02T07:21:17;6.36;99.99
66586;SHT30;53444;45.822;16.092;2024-03-02T07:23:43;6.58;99.99
66586;SHT30;53444;45.822;16.092;2024-03-02T07:26:10;6.64;99.99
66586;SHT30;53444;45.822;16.092;2024-03-02T07:28:38;6.84;99.99
66586;SHT30;53444;45.822;16.092;2024-03-02T07:31:05;6.27;99.99
66586;SHT30;53444;45.822;16.092;2024-03-02T07:33:32;6.51;99.99
66586;SHT30;53444;45.822;16.092;2024-03-02T07:36:00;6.67;99.99
66586;SHT30;53444;45.822;16.092;2024-03-02T07:38:27;6.99;99.99
66586;SHT30;53444;45.822;16.092;2024-03-02T07:40:54;7.12;99.99
66586;SHT30;53444;45.822;16.092;2024-03-02T07:43:21;7.14;99.99
66586;SHT30;53444;45.822;16.092;2024-03-02T07:45:49;7.26;99.99
66586;SHT30;53444;45.822;16.092;2024-03-02T07:48:16;7.19;99.99
66586;SHT30;53444;45.822;16.092;2024-03-02T07:50:42;7.28;99.99
66586;SHT30;53444;45.822;16.092;2024-03-02T07:53:09;7.05;99.99
66586;SHT30;53444;45.822;16.092;2024-03-02T07:55:36;7.01;99.99
66586;SHT30;53444;45.822;16.092;2024-03-02T07:58:03;6.88;99.99
66586;SHT30;53444;45.822;16.092;2024-03-02T08:00:30;7.14;99.99
66586;SHT30;53444;45.822;16.092;2024-03-02T08:02:58;7.28;99.99
66586;SHT30;53444;45.822;16.092;2024-03-02T08:05:25;7.30;99.99
66586;SHT30;53444;45.822;16.092;2024-03-02T08:07:52;7.50;99.99
66586;SHT30;53444;45.822;16.092;2024-03-02T08:10:19;7.60;99.71
66586;SHT30;53444;45.822;16.092;2024-03-02T08:12:46;7.79;99.56
66586;SHT30;53444;45.822;16.092;2024-03-02T08:15:14;7.86;99.37
66586;SHT30;53444;45.822;16.092;2024-03-02T08:17:41;7.93;99.15
66586;SHT30;53444;45.822;16.092;2024-03-02T08:20:12;7.97;99.06
66586;SHT30;53444;45.822;16.092;2024-03-02T08:22:39;7.83;98.66
66586;SHT30;53444;45.822;16.092;2024-03-02T08:25:07;7.56;99.32
66586;SHT30;53444;45.822;16.092;2024-03-02T08:27:34;7.71;99.59
66586;SHT30;53444;45.822;16.092;2024-03-02T08:30:01;7.89;99.50
66586;SHT30;53444;45.822;16.092;2024-03-02T08:32:31;7.93;99.60
66586;SHT30;53444;45.822;16.092;2024-03-02T08:34:58;7.95;99.75
66586;SHT30;53444;45.822;16.092;2024-03-02T08:37:26;8.18;99.30
66586;SHT30;53444;45.822;16.092;2024-03-02T08:39:53;8.31;98.73
66586;SHT30;53444;45.822;16.092;2024-03-02T08:42:19;8.12;98.78
66586;SHT30;53444;45.822;16.092;2024-03-02T08:44:46;7.97;98.76
66586;SHT30;53444;45.822;16.092;2024-03-02T08:47:13;8.07;98.90
66586;SHT30;53444;45.822;16.092;2024-03-02T08:49:40;8.30;98.24
66586;SHT30;53444;45.822;16.092;2024-03-02T08:52:06;8.44;97.91
66586;SHT30;53444;45.822;16.092;2024-03-02T08:54:35;8.51;98.04
66586;SHT30;53444;45.822;16.092;2024-03-02T08:57:02;8.41;98.24
66586;SHT30;53444;45.822;16.092;2024-03-02T08:59:28;8.35;98.35
66586;SHT30;53444;45.822;16.092;2024-03-02T09:01:55;8.51;97.73
66586;SHT30;53444;45.822;16.092;2024-03-02T09:04:22;8.44;97.78
66586;SHT30;53444;45.822;16.092;2024-03-02T09:06:48;8.38;98.31
66586;SHT30;53444;45.822;16.092;2024-03-02T09:09:15;8.45;98.41
66586;SHT30;53444;45.822;16.092;2024-03-02T09:11:43;8.48;98.52
66586;SHT30;53444;45.822;16.092;2024-03-02T09:14:09;8.51;98.19
66586;SHT30;53444;45.822;16.092;2024-03-02T09:19:04;8.71;97.70
66586;SHT30;53444;45.822;16.092;2024-03-02T09:21:31;8.84;97.34
66586;SHT30;53444;45.822;16.092;2024-03-02T09:23:58;9.06;96.26
66586;SHT30;53444;45.822;16.092;2024-03-02T09:26:25;9.27;95.64
66586;SHT30;53444;45.822;16.092;2024-03-02T09:28:53;9.31;95.98
66586;SHT30;53444;45.822;16.092;2024-03-02T09:31:20;9.43;96.39
66586;SHT30;53444;45.822;16.092;2024-03-02T09:33:47;9.35;95.76
66586;SHT30;53444;45.822;16.092;2024-03-02T09:36:17;9.41;95.56
66586;SHT30;53444;45.822;16.092;2024-03-02T09:38:44;9.68;95.51
66586;SHT30;53444;45.822;16.092;2024-03-02T09:41:11;9.85;94.93
66586;SHT30;53444;45.822;16.092;2024-03-02T09:43:38;9.95;94.78
66586;SHT30;53444;45.822;16.092;2024-03-02T09:46:09;10.02;94.82
66586;SHT30;53444;45.822;16.092;2024-03-02T09:48:35;10.13;93.71
66586;SHT30;53444;45.822;16.092;2024-03-02T09:51:04;10.09;95.13
66586;SHT30;53444;45.822;16.092;2024-03-02T09:53:32;10.26;94.44
66586;SHT30;53444;45.822;16.092;2024-03-02T09:55:59;10.53;93.22
66586;SHT30;53444;45.822;16.092;2024-03-02T09:58:26;10.80;92.47
66586;SHT30;53444;45.822;16.092;2024-03-02T10:00:54;11.17;92.01
66586;SHT30;53444;45.822;16.092;2024-03-02T10:03:22;11.66;91.08
66586;SHT30;53444;45.822;16.092;2024-03-02T10:05:49;12.09;90.66
66586;SHT30;53444;45.822;16.092;2024-03-02T10:08:17;12.09;90.19
66586;SHT30;53444;45.822;16.092;2024-03-02T10:10:43;12.38;88.80
66586;SHT30;53444;45.822;16.092;2024-03-02T10:13:11;12.75;88.96
66586;SHT30;53444;45.822;16.092;2024-03-02T10:15:39;12.92;88.35
66586;SHT30;53444;45.822;16.092;2024-03-02T10:18:08;12.71;87.85
66586;SHT30;53444;45.822;16.092;2024-03-02T10:20:37;12.58;87.37
66586;SHT30;53444;45.822;16.092;2024-03-02T10:23:11;12.04;87.83
66586;SHT30;53444;45.822;16.092;2024-03-02T10:25:38;11.83;89.41
66586;SHT30;53444;45.822;16.092;2024-03-02T10:28:05;11.99;89.61
66586;SHT30;53444;45.822;16.092;2024-03-02T10:30:32;12.10;89.17
66586;SHT30;53444;45.822;16.092;2024-03-02T10:33:00;12.14;89.68
66586;SHT30;53444;45.822;16.092;2024-03-02T10:35:27;12.00;89.47
66586;SHT30;53444;45.822;16.092;2024-03-02T10:37:55;11.96;89.81
66586;SHT30;53444;45.822;16.092;2024-03-02T10:40:22;12.09;90.24
66586;SHT30;53444;45.822;16.092;2024-03-02T10:42:50;12.12;89.94
66586;SHT30;53444;45.822;16.092;2024-03-02T10:45:21;12.16;88.99
66586;SHT30;53444;45.822;16.092;2024-03-02T10:47:49;12.04;90.25
66586;SHT30;53444;45.822;16.092;2024-03-02T10:50:16;12.00;90.28
66586;SHT30;53444;45.822;16.092;2024-03-02T10:52:44;12.33;89.82
66586;SHT30;53444;45.822;16.092;2024-03-02T10:55:14;12.52;89.11
66586;SHT30;53444;45.822;16.092;2024-03-02T10:57:50;13.03;88.47
66586;SHT30;53444;45.822;16.092;2024-03-02T11:00:19;13.81;87.05
66586;SHT30;53444;45.822;16.092;2024-03-02T11:02:51;13.39;86.37
66586;SHT30;53444;45.822;16.092;2024-03-02T11:05:31;13.39;86.55
66586;SHT30;53444;45.822;16.092;2024-03-02T11:08:07;13.02;85.95
66586;SHT30;53444;45.822;16.092;2024-03-02T11:10:41;12.99;86.91
66586;SHT30;53444;45.822;16.092;2024-03-02T11:13:09;13.03;87.10
66586;SHT30;53444;45.822;16.092;2024-03-02T11:15:40;13.03;86.81
66586;SHT30;53444;45.822;16.092;2024-03-02T11:18:10;13.13;87.28
66586;SHT30;53444;45.822;16.092;2024-03-02T11:20:38;13.19;86.17
66586;SHT30;53444;45.822;16.092;2024-03-02T11:23:06;13.23;86.52
66586;SHT30;53444;45.822;16.092;2024-03-02T11:25:33;14.01;85.32
66586;SHT30;53444;45.822;16.092;2024-03-02T11:28:03;14.89;83.85
66586;SHT30;53444;45.822;16.092;2024-03-02T11:30:49;15.17;81.42
66586;SHT30;53444;45.822;16.092;2024-03-02T11:33:23;14.77;82.07
66586;SHT30;53444;45.822;16.092;2024-03-02T11:35:53;14.20;83.60
66586;SHT30;53444;45.822;16.092;2024-03-02T11:38:21;14.13;84.10
66586;SHT30;53444;45.822;16.092;2024-03-02T11:40:48;14.13;83.99
66586;SHT30;53444;45.822;16.092;2024-03-02T11:43:16;14.97;81.50
66586;SHT30;53444;45.822;16.092;2024-03-02T11:45:44;15.11;81.64
66586;SHT30;53444;45.822;16.092;2024-03-02T11:48:23;14.87;79.94
66586;SHT30;53444;45.822;16.092;2024-03-02T11:50:57;15.47;80.94
66586;SHT30;53444;45.822;16.092;2024-03-02T11:53:26;15.82;79.64
66586;SHT30;53444;45.822;16.092;2024-03-02T11:55:55;16.26;77.53
66586;SHT30;53444;45.822;16.092;2024-03-02T11:58:23;16.43;76.91
66586;SHT30;53444;45.822;16.092;2024-03-02T12:00:52;16.37;77.73
66586;SHT30;53444;45.822;16.092;2024-03-02T12:03:22;15.79;78.60
66586;SHT30;53444;45.822;16.092;2024-03-02T12:05:50;15.67;79.33
66586;SHT30;53444;45.822;16.092;2024-03-02T12:08:17;16.53;77.09
66586;SHT30;53444;45.822;16.092;2024-03-02T12:10:56;16.87;75.59
66586;SHT30;53444;45.822;16.092;2024-03-02T12:13:25;16.74;76.22
66586;SHT30;53444;45.822;16.092;2024-03-02T12:15:54;16.90;76.51
66586;SHT30;53444;45.822;16.092;2024-03-02T12:18:22;17.01;74.92
66586;SHT30;53444;45.822;16.092;2024-03-02T12:20:50;16.76;75.47
66586;SHT30;53444;45.822;16.092;2024-03-02T12:23:20;16.59;74.74
66586;SHT30;53444;45.822;16.092;2024-03-02T12:25:50;15.24;78.25
66586;SHT30;53444;45.822;16.092;2024-03-02T12:28:17;16.36;77.27
66586;SHT30;53444;45.822;16.092;2024-03-02T12:30:52;16.83;75.04
66586;SHT30;53444;45.822;16.092;2024-03-02T12:33:19;17.21;75.65
66586;SHT30;53444;45.822;16.092;2024-03-02T12:35:48;17.52;72.82
66586;SHT30;53444;45.822;16.092;2024-03-02T12:38:15;17.58;72.72
66586;SHT30;53444;45.822;16.092;2024-03-02T12:40:43;17.53;73.48
66586;SHT30;53444;45.822;16.092;2024-03-02T12:43:10;17.63;73.74
66586;SHT30;53444;45.822;16.092;2024-03-02T12:45:38;17.56;73.58
66586;SHT30;53444;45.822;16.092;2024-03-02T12:48:07;18.10;72.09
66586;SHT30;53444;45.822;16.092;2024-03-02T12:50:33;18.21;72.25
66586;SHT30;53444;45.822;16.092;2024-03-02T12:53:00;18.60;71.18
66586;SHT30;53444;45.822;16.092;2024-03-02T12:55:27;18.71;71.43
66586;SHT30;53444;45.822;16.092;2024-03-02T12:57:54;18.82;69.71
66586;SHT30;53444;45.822;16.092;2024-03-02T13:00:21;19.08;68.88
66586;SHT30;53444;45.822;16.092;2024-03-02T13:02:49;19.47;67.87
66586;SHT30;53444;45.822;16.092;2024-03-02T13:05:17;19.27;68.55
66586;SHT30;53444;45.822;16.092;2024-03-02T13:07:46;19.45;67.25
66586;SHT30;53444;45.822;16.092;2024-03-02T13:10:13;18.17;68.76
66586;SHT30;53444;45.822;16.092;2024-03-02T13:12:40;18.91;68.07
66586;SHT30;53444;45.822;16.092;2024-03-02T13:15:08;19.13;67.65
66586;SHT30;53444;45.822;16.092;2024-03-02T13:17:35;19.54;66.65
66586;SHT30;53444;45.822;16.092;2024-03-02T13:20:02;19.45;65.47
66586;SHT30;53444;45.822;16.092;2024-03-02T13:22:34;19.50;65.87
66586;SHT30;53444;45.822;16.092;2024-03-02T13:25:01;19.43;67.12
66586;SHT30;53444;45.822;16.092;2024-03-02T13:27:29;19.97;66.85
66586;SHT30;53444;45.822;16.092;2024-03-02T13:29:55;20.52;65.37
66586;SHT30;53444;45.822;16.092;2024-03-02T13:32:22;20.20;65.52
66586;SHT30;53444;45.822;16.092;2024-03-02T13:34:51;19.56;65.38
66586;SHT30;53444;45.822;16.092;2024-03-02T13:37:17;20.27;64.12
66586;SHT30;53444;45.822;16.092;2024-03-02T13:39:45;20.66;62.63
66586;SHT30;53444;45.822;16.092;2024-03-02T13:42:12;19.69;63.59
66586;SHT30;53444;45.822;16.092;2024-03-02T13:44:40;17.85;67.53
66586;SHT30;53444;45.822;16.092;2024-03-02T13:47:07;18.17;67.64
66586;SHT30;53444;45.822;16.092;2024-03-02T13:49:34;19.93;64.56
66586;SHT30;53444;45.822;16.092;2024-03-02T13:52:03;21.10;61.32
66586;SHT30;53444;45.822;16.092;2024-03-02T13:54:37;18.79;63.80
66586;SHT30;53444;45.822;16.092;2024-03-02T13:57:05;19.83;65.04
66586;SHT30;53444;45.822;16.092;2024-03-02T13:59:32;20.79;63.06
66586;SHT30;53444;45.822;16.092;2024-03-02T14:01:59;21.44;60.85
66586;SHT30;53444;45.822;16.092;2024-03-02T14:04:26;21.89;61.00
66586;SHT30;53444;45.822;16.092;2024-03-02T14:06:52;22.15;58.87
66586;SHT30;53444;45.822;16.092;2024-03-02T14:09:19;21.92;58.90
66586;SHT30;53444;45.822;16.092;2024-03-02T14:11:46;21.88;59.33
66586;SHT30;53444;45.822;16.092;2024-03-02T14:14:16;20.90;60.86
66586;SHT30;53444;45.822;16.092;2024-03-02T14:16:43;22.08;58.75
66586;SHT30;53444;45.822;16.092;2024-03-02T14:19:09;22.02;59.06
66586;SHT30;53444;45.822;16.092;2024-03-02T14:21:36;22.28;58.27
66586;SHT30;53444;45.822;16.092;2024-03-02T14:24:04;22.52;58.75
66586;SHT30;53444;45.822;16.092;2024-03-02T14:26:32;21.73;60.00
66586;SHT30;53444;45.822;16.092;2024-03-02T14:28:58;22.12;58.98
66586;SHT30;53444;45.822;16.092;2024-03-02T14:31:28;22.09;59.30
66586;SHT30;53444;45.822;16.092;2024-03-02T14:33:55;21.95;58.83
66586;SHT30;53444;45.822;16.092;2024-03-02T14:36:21;22.28;58.55
66586;SHT30;53444;45.822;16.092;2024-03-02T14:38:48;22.32;58.29
66586;SHT30;53444;45.822;16.092;2024-03-02T14:41:15;21.69;59.66
66586;SHT30;53444;45.822;16.092;2024-03-02T14:43:41;19.47;65.06
66586;SHT30;53444;45.822;16.092;2024-03-02T14:46:08;18.44;67.76
66586;SHT30;53444;45.822;16.092;2024-03-02T14:48:36;19.76;65.08
66586;SHT30;53444;45.822;16.092;2024-03-02T14:51:04;21.02;62.33
66586;SHT30;53444;45.822;16.092;2024-03-02T14:53:31;21.11;61.90
66586;SHT30;53444;45.822;16.092;2024-03-02T14:55:58;20.03;63.86
66586;SHT30;53444;45.822;16.092;2024-03-02T14:58:25;18.78;66.68
66586;SHT30;53444;45.822;16.092;2024-03-02T15:00:54;17.96;68.24
66586;SHT30;53444;45.822;16.092;2024-03-02T15:03:21;17.32;70.20
66586;SHT30;53444;45.822;16.092;2024-03-02T15:05:50;16.90;71.58
66586;SHT30;53444;45.822;16.092;2024-03-02T15:08:18;16.76;72.33
66586;SHT30;53444;45.822;16.092;2024-03-02T15:10:45;16.42;73.41
66586;SHT30;53444;45.822;16.092;2024-03-02T15:13:12;16.39;73.60
66586;SHT30;53444;45.822;16.092;2024-03-02T15:15:39;16.32;74.06
66586;SHT30;53444;45.822;16.092;2024-03-02T15:18:06;16.04;74.86
66586;SHT30;53444;45.822;16.092;2024-03-02T15:20:33;15.77;74.84
66586;SHT30;53444;45.822;16.092;2024-03-02T15:23:01;15.43;75.98
66586;SHT30;53444;45.822;16.092;2024-03-02T15:25:28;15.62;75.86
66586;SHT30;53444;45.822;16.092;2024-03-02T15:27:55;15.65;75.51
66586;SHT30;53444;45.822;16.092;2024-03-02T15:30:22;15.53;76.02